createdAt,value
2023-02-17T00:00:11.796Z,3.55
2023-02-17T00:02:38.291Z,3.92
2023-02-17T00:05:05.960Z,3.75
2023-02-17T00:07:33.188Z,3.47
2023-02-17T00:09:59.941Z,4.15
2023-02-17T00:14:53.089Z,2.90
2023-02-17T00:17:19.476Z,3.78
2023-02-17T00:19:45.873Z,2.38
2023-02-17T00:22:12.290Z,1.85
2023-02-17T00:24:40.072Z,5.35
2023-02-17T00:27:06.750Z,3.33
2023-02-17T00:29:33.866Z,3.35
2023-02-17T00:32:00.456Z,3.03
2023-02-17T00:36:54.716Z,3.75
2023-02-17T00:39:23.279Z,3.13
2023-02-17T00:41:50.339Z,7.97
2023-02-17T00:44:18.939Z,4.43
2023-02-17T00:46:46.386Z,2.08
2023-02-17T00:49:24.206Z,2.40
2023-02-17T00:51:52.140Z,1.45
2023-02-17T00:54:19.851Z,4.80
2023-02-17T00:56:46.403Z,4.10
2023-02-17T00:59:13.037Z,3.85
2023-02-17T01:01:40.462Z,5.03
2023-02-17T01:04:07.000Z,4.05
2023-02-17T01:06:36.607Z,3.00
2023-02-17T01:09:04.940Z,1.90
2023-02-17T01:11:36.030Z,2.53
2023-02-17T01:14:06.305Z,6.20
2023-02-17T01:16:39.333Z,5.53
2023-02-17T01:19:09.275Z,5.20
2023-02-17T01:21:35.990Z,3.80
2023-02-17T01:26:32.371Z,1.17
2023-02-17T01:28:59.057Z,3.65
2023-02-17T01:31:30.147Z,2.97
2023-02-17T01:33:58.968Z,5.07
2023-02-17T01:36:25.646Z,3.67
2023-02-17T01:38:52.308Z,3.17
2023-02-17T01:41:22.298Z,4.10
2023-02-17T01:44:14.622Z,3.70
2023-02-17T01:46:44.039Z,3.92
2023-02-17T01:49:22.474Z,3.30
2023-02-17T01:51:55.286Z,7.50
2023-02-17T01:54:33.294Z,3.53
2023-02-17T01:57:01.575Z,2.28
2023-02-17T01:59:29.293Z,4.25
2023-02-17T02:01:59.377Z,3.90
2023-02-17T02:04:29.946Z,3.10
2023-02-17T02:06:56.675Z,3.65
2023-02-17T02:09:31.311Z,2.65
2023-02-17T02:11:59.942Z,5.13
2023-02-17T02:14:27.358Z,7.00
2023-02-17T02:17:08.129Z,7.53
2023-02-17T02:20:01.772Z,3.88
2023-02-17T02:22:54.028Z,3.13
2023-02-17T02:25:55.799Z,5.05
2023-02-17T02:28:56.885Z,4.47
2023-02-17T02:31:45.128Z,4.68
2023-02-17T02:34:25.751Z,6.90
2023-02-17T02:37:14.099Z,4.07
2023-02-17T02:39:53.964Z,4.68
2023-02-17T02:42:24.372Z,3.15
2023-02-17T02:44:50.830Z,5.13
2023-02-17T02:47:44.285Z,5.90
2023-02-17T02:50:14.613Z,2.20
2023-02-17T02:52:58.220Z,3.42
2023-02-17T02:56:07.283Z,4.82
2023-02-17T02:58:58.006Z,2.40
2023-02-17T03:01:37.959Z,7.22
2023-02-17T03:04:10.614Z,3.60
2023-02-17T03:06:43.679Z,4.25
2023-02-17T03:09:22.302Z,3.75
2023-02-17T03:11:49.531Z,2.83
2023-02-17T03:14:19.324Z,5.80
2023-02-17T03:16:53.173Z,2.90
2023-02-17T03:19:23.701Z,2.30
2023-02-17T03:21:56.819Z,6.00
2023-02-17T03:24:23.668Z,3.45
2023-02-17T03:29:16.676Z,3.15
2023-02-17T03:31:43.153Z,1.75
2023-02-17T03:34:09.881Z,3.28
2023-02-17T03:36:36.483Z,2.70
2023-02-17T03:39:03.626Z,2.25
2023-02-17T03:41:30.156Z,4.70
2023-02-17T03:43:56.562Z,2.40
2023-02-17T03:46:24.027Z,3.65
2023-02-17T03:48:50.452Z,4.50
2023-02-17T03:51:21.242Z,2.70
2023-02-17T03:53:48.774Z,2.33
2023-02-17T03:56:16.473Z,2.63
2023-02-17T03:58:43.168Z,2.40
2023-02-17T04:01:11.735Z,3.53
2023-02-17T04:03:39.774Z,4.35
2023-02-17T04:06:07.735Z,4.03
2023-02-17T04:08:34.485Z,4.10
2023-02-17T04:11:03.881Z,3.78
2023-02-17T04:13:30.862Z,3.17
2023-02-17T04:15:57.362Z,8.45
2023-02-17T04:18:24.446Z,5.40
2023-02-17T04:20:51.706Z,1.77
2023-02-17T04:23:18.748Z,3.70
2023-02-17T04:25:49.202Z,2.40
2023-02-17T04:28:19.527Z,3.22
2023-02-17T04:30:47.517Z,1.73
2023-02-17T04:33:15.168Z,2.53
2023-02-17T04:35:42.386Z,4.53
2023-02-17T04:38:17.717Z,5.18
2023-02-17T04:40:44.147Z,2.38
2023-02-17T04:43:10.563Z,4.68
2023-02-17T04:45:37.663Z,5.40
2023-02-17T04:48:08.090Z,2.58
2023-02-17T04:50:34.598Z,3.72
2023-02-17T04:53:01.068Z,2.75
2023-02-17T04:55:27.610Z,3.63
2023-02-17T04:57:54.135Z,2.67
2023-02-17T05:00:21.074Z,5.13
2023-02-17T05:02:47.879Z,5.88
2023-02-17T05:05:15.414Z,5.63
2023-02-17T05:07:43.320Z,2.70
2023-02-17T05:10:10.286Z,3.28
2023-02-17T05:12:36.804Z,4.72
2023-02-17T05:15:03.700Z,7.13
2023-02-17T05:19:56.869Z,3.72
2023-02-17T05:22:23.590Z,4.13
2023-02-17T05:24:50.029Z,2.22
2023-02-17T05:27:16.569Z,4.95
2023-02-17T05:29:43.083Z,7.05
2023-02-17T05:32:09.685Z,2.60
2023-02-17T05:34:37.170Z,3.50
2023-02-17T05:37:03.692Z,2.10
2023-02-17T05:39:30.408Z,3.00
2023-02-17T05:41:57.149Z,3.50
2023-02-17T05:44:24.439Z,5.97
2023-02-17T05:46:51.786Z,6.18
2023-02-17T05:49:18.335Z,3.47
2023-02-17T05:51:44.902Z,2.78
2023-02-17T05:54:11.363Z,3.00
2023-02-17T05:56:38.129Z,3.08
2023-02-17T05:59:04.522Z,2.78
2023-02-17T06:01:31.317Z,3.08
2023-02-17T06:03:58.775Z,4.25
2023-02-17T06:06:25.542Z,2.63
2023-02-17T06:08:51.888Z,3.63
2023-02-17T06:11:18.433Z,2.65
2023-02-17T06:13:44.819Z,5.15
2023-02-17T06:16:11.268Z,4.57
2023-02-17T06:18:37.852Z,2.58
2023-02-17T06:21:04.529Z,3.08
2023-02-17T06:23:30.962Z,2.15
2023-02-17T06:25:57.389Z,2.08
2023-02-17T06:28:24.919Z,2.17
2023-02-17T06:30:51.352Z,2.95
2023-02-17T06:33:17.930Z,2.45
2023-02-17T06:35:48.575Z,2.25
2023-02-17T06:38:14.978Z,2.03
2023-02-17T06:40:41.470Z,2.50
2023-02-17T06:43:07.858Z,0.85
2023-02-17T06:45:34.301Z,1.00
2023-02-17T06:48:00.726Z,2.38
2023-02-17T06:50:27.159Z,1.50
2023-02-17T06:52:53.525Z,1.85
2023-02-17T06:55:19.902Z,1.38
2023-02-17T06:57:46.293Z,2.28
2023-02-17T07:00:13.780Z,1.35
2023-02-17T07:02:40.925Z,5.53
2023-02-17T07:05:08.041Z,1.10
2023-02-17T07:07:35.491Z,0.95
2023-02-17T07:10:03.656Z,4.20
2023-02-17T07:12:30.417Z,2.78
2023-02-17T07:14:57.764Z,1.77
2023-02-17T07:17:24.708Z,1.70
2023-02-17T07:19:51.114Z,1.67
2023-02-17T07:22:17.590Z,1.27
2023-02-17T07:24:43.985Z,2.20
2023-02-17T07:27:10.935Z,4.97
2023-02-17T07:29:37.523Z,6.53
2023-02-17T07:32:05.297Z,7.40
2023-02-17T07:34:31.820Z,2.72
2023-02-17T07:36:58.277Z,1.30
2023-02-17T07:39:24.826Z,3.38
2023-02-17T07:41:51.338Z,3.83
2023-02-17T07:44:17.754Z,1.77
2023-02-17T07:46:44.248Z,3.65
2023-02-17T07:49:11.004Z,2.25
2023-02-17T07:51:37.412Z,2.83
2023-02-17T07:54:04.716Z,1.98
2023-02-17T07:56:33.707Z,1.73
2023-02-17T07:59:00.194Z,8.18
2023-02-17T08:01:26.693Z,4.97
2023-02-17T08:03:57.693Z,3.80
2023-02-17T08:06:25.347Z,4.07
2023-02-17T08:09:12.158Z,4.35
2023-02-17T08:11:58.244Z,3.33
2023-02-17T08:14:27.202Z,2.97
2023-02-17T08:16:53.738Z,3.95
2023-02-17T08:19:20.732Z,4.40
2023-02-17T08:21:47.484Z,4.38
2023-02-17T08:26:40.287Z,5.97
2023-02-17T08:29:06.676Z,7.00
2023-02-17T08:31:35.661Z,4.35
2023-02-17T08:34:08.131Z,6.05
2023-02-17T08:36:37.310Z,7.22
2023-02-17T08:39:07.037Z,4.40
2023-02-17T08:41:36.845Z,4.95
2023-02-17T08:44:08.315Z,6.60
2023-02-17T08:46:35.714Z,4.15
2023-02-17T08:49:02.446Z,5.43
2023-02-17T08:53:57.764Z,5.55
2023-02-17T08:56:26.526Z,6.28
2023-02-17T08:58:53.208Z,4.85
2023-02-17T09:03:49.412Z,3.53
2023-02-17T09:06:16.161Z,5.97
2023-02-17T09:11:10.135Z,2.67
2023-02-17T09:13:39.757Z,4.40
2023-02-17T09:16:07.321Z,9.55
2023-02-17T09:18:34.019Z,6.43
2023-02-17T09:21:09.194Z,7.88
2023-02-17T09:23:39.406Z,7.60
2023-02-17T09:26:09.740Z,7.03
2023-02-17T09:28:36.863Z,8.48
2023-02-17T09:31:13.579Z,4.00
2023-02-17T09:33:41.646Z,4.43
2023-02-17T09:36:10.639Z,7.15
2023-02-17T09:38:38.600Z,7.22
2023-02-17T09:41:39.898Z,9.43
2023-02-17T09:44:22.678Z,9.65
2023-02-17T09:47:02.562Z,6.13
2023-02-17T09:49:44.988Z,11.30
2023-02-17T09:52:40.455Z,7.40
2023-02-17T09:55:34.616Z,6.10
2023-02-17T09:58:13.158Z,6.18
2023-02-17T10:00:49.037Z,7.50
2023-02-17T10:03:26.791Z,7.07
2023-02-17T10:06:06.086Z,9.60
2023-02-17T10:08:40.762Z,9.70
2023-02-17T10:12:01.107Z,4.82
2023-02-17T10:14:46.365Z,5.88
2023-02-17T10:17:34.469Z,8.18
2023-02-17T10:20:06.837Z,5.70
2023-02-17T10:22:34.600Z,6.95
2023-02-17T10:25:02.852Z,12.45
2023-02-17T10:28:13.583Z,9.18
2023-02-17T10:30:52.120Z,7.53
2023-02-17T10:33:42.422Z,7.57
2023-02-17T10:36:23.214Z,6.55
2023-02-17T10:38:52.499Z,9.25
2023-02-17T10:41:29.410Z,8.45
2023-02-17T10:43:55.937Z,9.27
2023-02-17T10:48:55.700Z,8.90
2023-02-17T10:51:26.988Z,5.18
2023-02-17T10:54:24.587Z,6.45
2023-02-17T10:56:54.878Z,6.38
2023-02-17T10:59:27.579Z,4.40
2023-02-17T11:04:24.820Z,7.57
2023-02-17T11:06:53.768Z,4.22
2023-02-17T11:09:33.001Z,7.68
2023-02-17T11:12:10.913Z,7.00
2023-02-17T11:14:43.555Z,6.10
2023-02-17T11:17:38.465Z,6.18
2023-02-17T11:20:27.088Z,7.20
2023-02-17T11:23:06.265Z,8.05
2023-02-17T11:28:09.791Z,9.20
2023-02-17T11:30:38.858Z,8.45
2023-02-17T11:33:23.217Z,5.63
2023-02-17T11:35:53.609Z,5.45
2023-02-17T11:38:25.706Z,5.20
2023-02-17T11:41:04.387Z,8.63
2023-02-17T11:43:33.044Z,6.68
2023-02-17T11:46:33.683Z,5.63
2023-02-17T11:49:36.298Z,7.78
2023-02-17T11:52:27.141Z,7.40
2023-02-17T11:54:59.716Z,5.82
2023-02-17T11:57:40.728Z,5.20
2023-02-17T12:00:20.810Z,4.50
2023-02-17T12:02:56.501Z,2.83
2023-02-17T12:05:48.842Z,3.25
2023-02-17T12:08:38.355Z,3.25
2023-02-17T12:11:10.672Z,2.25
2023-02-17T12:13:50.714Z,6.35
2023-02-17T12:16:35.446Z,6.35
2023-02-17T12:19:37.221Z,6.43
2023-02-17T12:22:17.600Z,4.35
2023-02-17T12:25:16.317Z,4.82
2023-02-17T12:27:54.765Z,3.78
2023-02-17T12:30:33.998Z,4.75
2023-02-17T12:33:18.262Z,5.50
2023-02-17T12:36:14.145Z,5.82
2023-02-17T12:38:47.904Z,3.38
2023-02-17T12:41:25.835Z,6.07
2023-02-17T12:43:59.745Z,3.35
2023-02-17T12:46:41.428Z,8.38
2023-02-17T12:49:19.370Z,7.97
2023-02-17T12:51:51.828Z,5.13
2023-02-17T12:54:24.495Z,4.53
2023-02-17T12:59:33.097Z,4.30
2023-02-17T13:02:05.631Z,3.60
2023-02-17T13:04:34.048Z,2.85
2023-02-17T13:07:21.315Z,4.85
2023-02-17T13:09:49.898Z,3.08
2023-02-17T13:12:24.808Z,1.70
2023-02-17T13:15:00.295Z,3.53
2023-02-17T13:17:29.941Z,1.20
2023-02-17T13:20:10.630Z,2.70
2023-02-17T13:22:39.094Z,2.20
2023-02-17T13:25:06.031Z,0.60
2023-02-17T13:27:36.038Z,1.92
2023-02-17T13:30:08.617Z,0.88
2023-02-17T13:35:30.578Z,1.63
2023-02-17T13:37:57.236Z,0.70
2023-02-17T13:40:24.385Z,1.48
2023-02-17T13:42:55.679Z,2.22
2023-02-17T13:45:58.167Z,1.95
2023-02-17T13:48:28.276Z,1.83
2023-02-17T13:51:25.897Z,1.40
2023-02-17T13:53:52.458Z,1.48
2023-02-17T13:56:32.730Z,1.42
2023-02-17T13:59:18.314Z,1.85
2023-02-17T14:01:46.383Z,0.65
2023-02-17T14:04:26.247Z,2.08
2023-02-17T14:06:56.208Z,0.57
2023-02-17T14:09:27.428Z,1.23
2023-02-17T14:11:55.337Z,1.05
2023-02-17T14:14:37.862Z,1.73
2023-02-17T14:17:09.109Z,1.90
2023-02-17T14:19:43.777Z,1.63
2023-02-17T14:22:37.725Z,1.23
2023-02-17T14:25:12.883Z,1.25
2023-02-17T14:27:45.561Z,1.08
2023-02-17T14:30:34.448Z,0.98
2023-02-17T14:33:25.048Z,0.77
2023-02-17T14:36:03.890Z,1.20
2023-02-17T14:40:59.112Z,2.25
2023-02-17T14:43:25.552Z,0.98
2023-02-17T14:45:52.031Z,1.17
2023-02-17T14:48:18.806Z,1.42
2023-02-17T14:50:45.890Z,1.60
2023-02-17T14:53:20.339Z,0.93
2023-02-17T14:55:51.284Z,1.58
2023-02-17T14:58:31.988Z,2.10
2023-02-17T15:00:59.783Z,1.90
2023-02-17T15:03:27.045Z,1.05
2023-02-17T15:05:54.614Z,2.15
2023-02-17T15:08:24.284Z,1.23
2023-02-17T15:10:50.835Z,1.08
2023-02-17T15:13:19.824Z,0.57
2023-02-17T15:15:47.648Z,1.15
2023-02-17T15:18:16.475Z,0.40
2023-02-17T15:20:45.134Z,1.52
2023-02-17T15:23:18.228Z,0.43
2023-02-17T15:25:45.481Z,0.95
2023-02-17T15:28:13.912Z,1.42
2023-02-17T15:30:40.508Z,2.03
2023-02-17T15:33:12.510Z,2.58
2023-02-17T15:35:40.238Z,1.23
2023-02-17T15:38:09.955Z,0.95
2023-02-17T15:40:36.697Z,1.17
2023-02-17T15:43:03.588Z,1.88
2023-02-17T15:45:30.960Z,1.17
2023-02-17T15:48:05.226Z,1.33
2023-02-17T15:50:31.823Z,1.48
2023-02-17T15:52:59.215Z,1.92
2023-02-17T15:55:26.155Z,0.82
2023-02-17T15:57:55.443Z,1.60
2023-02-17T16:00:25.856Z,1.02
2023-02-17T16:02:53.279Z,1.65
2023-02-17T16:05:22.101Z,0.20
2023-02-17T16:07:48.823Z,2.17
2023-02-17T16:10:18.813Z,1.38
2023-02-17T16:12:46.844Z,0.75
2023-02-17T16:15:17.256Z,2.35
2023-02-17T16:17:44.193Z,0.63
2023-02-17T16:20:28.012Z,0.90
2023-02-17T16:22:54.401Z,0.65
2023-02-17T16:25:22.329Z,1.17
2023-02-17T16:27:51.362Z,0.73
2023-02-17T16:30:31.483Z,1.63
2023-02-17T16:32:58.560Z,0.52
2023-02-17T16:35:30.975Z,1.08
2023-02-17T16:38:00.860Z,1.10
2023-02-17T16:40:33.651Z,1.80
2023-02-17T16:43:00.218Z,0.88
2023-02-17T16:45:31.161Z,1.88
2023-02-17T16:47:59.384Z,1.02
2023-02-17T16:50:32.160Z,1.58
2023-02-17T16:53:01.600Z,2.97
2023-02-17T16:55:31.540Z,1.50
2023-02-17T16:57:58.366Z,1.20
2023-02-17T17:00:29.573Z,2.00
2023-02-17T17:02:57.088Z,0.93
2023-02-17T17:05:25.141Z,0.75
2023-02-17T17:07:51.860Z,1.65
2023-02-17T17:10:22.429Z,0.90
2023-02-17T17:12:49.152Z,1.15
2023-02-17T17:15:17.314Z,1.48
2023-02-17T17:17:49.871Z,0.73
2023-02-17T17:20:30.960Z,0.75
2023-02-17T17:23:09.813Z,1.42
2023-02-17T17:25:38.903Z,0.55
2023-02-17T17:28:10.502Z,1.45
2023-02-17T17:30:37.308Z,1.48
2023-02-17T17:33:04.575Z,1.80
2023-02-17T17:35:31.622Z,1.42
2023-02-17T17:37:58.737Z,3.88
2023-02-17T17:40:28.077Z,2.28
2023-02-17T17:42:55.636Z,1.20
2023-02-17T17:45:25.006Z,4.72
2023-02-17T17:47:52.110Z,4.65
2023-02-17T17:50:24.454Z,2.88
2023-02-17T17:52:51.093Z,2.65
2023-02-17T17:55:17.548Z,2.92
2023-02-17T18:00:15.295Z,3.13
2023-02-17T18:02:42.106Z,2.67
2023-02-17T18:05:09.203Z,0.88
2023-02-17T18:07:46.509Z,2.88
2023-02-17T18:10:13.978Z,5.90
2023-02-17T18:12:42.728Z,6.82
2023-02-17T18:15:09.470Z,2.45
2023-02-17T18:17:38.809Z,5.70
2023-02-17T18:20:10.475Z,5.13
2023-02-17T18:22:37.124Z,5.70
2023-02-17T18:27:37.576Z,2.88
2023-02-17T18:30:04.315Z,2.50
2023-02-17T18:32:30.714Z,4.90
2023-02-17T18:34:58.390Z,2.88
2023-02-17T18:37:25.675Z,4.57
2023-02-17T18:39:52.148Z,3.45
2023-02-17T18:44:44.976Z,4.78
2023-02-17T18:49:41.282Z,3.42
2023-02-17T18:52:14.264Z,4.32
2023-02-17T18:54:45.721Z,3.25
2023-02-17T18:57:15.012Z,4.57
2023-02-17T18:59:41.509Z,5.95
2023-02-17T19:04:45.362Z,2.70
2023-02-17T19:07:11.801Z,6.80
2023-02-17T19:09:44.099Z,2.78
2023-02-17T19:12:14.619Z,3.45
2023-02-17T19:14:41.894Z,4.90
2023-02-17T19:17:10.271Z,3.63
2023-02-17T19:19:41.219Z,5.00
2023-02-17T19:22:09.485Z,4.47
2023-02-17T19:24:37.216Z,6.47
2023-02-17T19:27:04.630Z,3.10
2023-02-17T19:29:34.332Z,4.57
2023-02-17T19:32:02.214Z,2.95
2023-02-17T19:34:29.696Z,3.70
2023-02-17T19:36:59.196Z,2.88
2023-02-17T19:39:25.662Z,4.75
2023-02-17T19:41:52.322Z,3.17
2023-02-17T19:44:20.115Z,2.67
2023-02-17T19:46:46.778Z,4.75
2023-02-17T19:49:13.554Z,4.93
2023-02-17T19:51:40.145Z,7.72
2023-02-17T19:54:07.017Z,4.53
2023-02-17T19:56:34.419Z,5.40
2023-02-17T19:59:00.997Z,5.93
2023-02-17T20:03:59.103Z,3.63
2023-02-17T20:06:34.776Z,2.17
2023-02-17T20:09:04.853Z,1.88
2023-02-17T20:11:32.273Z,4.63
2023-02-17T20:14:00.353Z,3.00
2023-02-17T20:16:28.263Z,4.18
2023-02-17T20:18:58.308Z,6.30
2023-02-17T20:21:28.117Z,5.35
2023-02-17T20:23:55.105Z,1.52
2023-02-17T20:26:28.036Z,4.60
2023-02-17T20:31:22.452Z,3.60
2023-02-17T20:33:50.416Z,2.92
2023-02-17T20:36:17.572Z,2.33
2023-02-17T20:38:45.032Z,5.70
2023-02-17T20:41:23.209Z,2.63
2023-02-17T20:43:50.589Z,1.90
2023-02-17T20:46:24.687Z,1.90
2023-02-17T20:48:52.402Z,4.05
2023-02-17T20:51:20.112Z,3.58
2023-02-17T20:53:50.020Z,3.63
2023-02-17T20:56:21.726Z,3.45
2023-02-17T20:59:02.320Z,4.90
2023-02-17T21:01:29.285Z,3.58
2023-02-17T21:04:02.854Z,3.55
2023-02-17T21:06:32.418Z,1.42
2023-02-17T21:09:01.969Z,3.38
2023-02-17T21:11:29.151Z,2.60
2023-02-17T21:13:56.027Z,4.10
2023-02-17T21:16:25.953Z,1.10
2023-02-17T21:18:53.346Z,2.97
2023-02-17T21:21:20.863Z,3.78
2023-02-17T21:23:47.963Z,3.95
2023-02-17T21:26:15.685Z,2.17
2023-02-17T21:28:42.889Z,5.30
2023-02-17T21:31:10.717Z,3.13
2023-02-17T21:33:41.863Z,1.50
2023-02-17T21:36:13.627Z,4.10
2023-02-17T21:38:41.546Z,2.67
2023-02-17T21:41:17.266Z,5.53
2023-02-17T21:44:02.929Z,3.30
2023-02-17T21:48:58.393Z,3.80
2023-02-17T21:51:25.483Z,4.65
2023-02-17T21:53:52.731Z,4.47
2023-02-17T21:56:21.328Z,5.60
2023-02-17T21:58:52.789Z,2.22
2023-02-17T22:01:21.133Z,3.00
2023-02-17T22:03:47.522Z,5.00
2023-02-17T22:06:41.912Z,2.88
2023-02-17T22:09:11.221Z,4.50
2023-02-17T22:11:40.416Z,6.10
2023-02-17T22:14:11.460Z,4.65
2023-02-17T22:16:38.534Z,4.15
2023-02-17T22:19:06.620Z,6.30
2023-02-17T22:21:33.887Z,5.22
2023-02-17T22:24:04.966Z,3.13
2023-02-17T22:26:31.743Z,1.60
2023-02-17T22:28:58.576Z,5.97
2023-02-17T22:31:28.376Z,3.95
2023-02-17T22:33:59.169Z,3.50
2023-02-17T22:36:27.434Z,4.35
2023-02-17T22:38:54.922Z,2.70
2023-02-17T22:41:23.684Z,2.95
2023-02-17T22:44:05.954Z,3.22
2023-02-17T22:46:33.408Z,4.90
2023-02-17T22:49:00.280Z,2.45
2023-02-17T22:51:33.716Z,2.83
2023-02-17T22:54:01.943Z,3.70
2023-02-17T22:56:28.826Z,2.80
2023-02-17T22:58:57.856Z,4.72
2023-02-17T23:01:25.097Z,2.97
2023-02-17T23:03:54.457Z,5.32
2023-02-17T23:06:25.159Z,4.10
2023-02-17T23:08:52.941Z,4.22
2023-02-17T23:11:43.239Z,2.45
2023-02-17T23:14:11.249Z,3.15
2023-02-17T23:16:38.080Z,3.47
2023-02-17T23:19:09.957Z,2.55
2023-02-17T23:21:36.959Z,3.13
2023-02-17T23:24:03.613Z,2.45
2023-02-17T23:28:56.356Z,2.38
2023-02-17T23:31:22.805Z,3.85
2023-02-17T23:33:49.249Z,2.25
2023-02-17T23:36:15.703Z,4.00
2023-02-17T23:38:42.328Z,6.28
2023-02-17T23:41:08.762Z,2.88
2023-02-17T23:43:35.217Z,3.00
2023-02-17T23:46:01.929Z,3.22
2023-02-17T23:51:00.650Z,0.95
2023-02-17T23:53:28.152Z,1.27
2023-02-17T23:56:38.919Z,3.70
2023-02-17T23:59:05.800Z,2.22
